WJA4034 CYYC-CYFI
Flight info
| Callsign | WJA4034 |
|---|---|
| Flight time | 1h 4m |
| Altitude | 36000 |
| Route | AVROM Q933 MAPUX DCT DAVEL/N0446F370 DCT LEXON/N0444F360 DCT NANLU/N0445F370 DCT YMM |
| Aircraft | B737/M-SDE2E3FGHIRWXY/LB1 |
Departure
| Time | 2026-04-28 23:47 |
|---|---|
| Airport | Calgary International Airport (CYYC) |
Arrival
| Time | 2026-04-29 00:51 |
|---|---|
| Airport | Fort Mackay / Firebag (CYFI) |
| Time | Latitude | Longitude | Altitude | Speed | Heading |
|---|---|---|---|---|---|
| 2026-04-28 23:04 | 51.12902 | -114.00753 | 3558 ft | 0 kts | 276° |
| 2026-04-28 23:34 | 51.12900 | -114.00729 | 3558 ft | 3 kts | 273° |
| 2026-04-28 23:34 | 51.12900 | -114.00697 | 3558 ft | 3 kts | 270° |
| 2026-04-28 23:34 | 51.12899 | -114.00668 | 3558 ft | 2 kts | 276° |
| 2026-04-28 23:34 | 51.12899 | -114.00663 | 3558 ft | 1 kts | 276° |
| 2026-04-28 23:36 | 51.12899 | -114.00664 | 3558 ft | 1 kts | 269° |
| 2026-04-28 23:36 | 51.12883 | -114.00670 | 3558 ft | 5 kts | 176° |
| 2026-04-28 23:36 | 51.12825 | -114.00644 | 3558 ft | 10 kts | 179° |
| 2026-04-28 23:36 | 51.12808 | -114.00644 | 3558 ft | 0 kts | 179° |
| 2026-04-28 23:38 | 51.12807 | -114.00644 | 3558 ft | 1 kts | 179° |
| 2026-04-28 23:38 | 51.12785 | -114.00643 | 3556 ft | 6 kts | 180° |
| 2026-04-28 23:38 | 51.12729 | -114.00643 | 3558 ft | 8 kts | 180° |
| 2026-04-28 23:38 | 51.12669 | -114.00643 | 3557 ft | 9 kts | 180° |
| 2026-04-28 23:39 | 51.12617 | -114.00711 | 3558 ft | 12 kts | 261° |
| 2026-04-28 23:39 | 51.12614 | -114.00838 | 3558 ft | 12 kts | 270° |
| 2026-04-28 23:39 | 51.12614 | -114.00968 | 3558 ft | 12 kts | 268° |
| 2026-04-28 23:39 | 51.12608 | -114.01117 | 3556 ft | 15 kts | 264° |
| 2026-04-28 23:40 | 51.12603 | -114.01294 | 3558 ft | 17 kts | 270° |
| 2026-04-28 23:40 | 51.12603 | -114.01487 | 3558 ft | 19 kts | 270° |
| 2026-04-28 23:40 | 51.12603 | -114.01700 | 3558 ft | 18 kts | 266° |
| 2026-04-28 23:40 | 51.12515 | -114.01797 | 3558 ft | 17 kts | 180° |
| 2026-04-28 23:41 | 51.12377 | -114.01797 | 3558 ft | 21 kts | 180° |
| 2026-04-28 23:41 | 51.12236 | -114.01796 | 3557 ft | 20 kts | 179° |
| 2026-04-28 23:41 | 51.12100 | -114.01797 | 3555 ft | 19 kts | 182° |
| 2026-04-28 23:41 | 51.11968 | -114.01797 | 3557 ft | 19 kts | 181° |
| 2026-04-28 23:42 | 51.11840 | -114.01797 | 3556 ft | 18 kts | 180° |
| 2026-04-28 23:42 | 51.11717 | -114.01797 | 3558 ft | 17 kts | 180° |
| 2026-04-28 23:42 | 51.11597 | -114.01797 | 3558 ft | 17 kts | 179° |
| 2026-04-28 23:42 | 51.11479 | -114.01799 | 3556 ft | 18 kts | 180° |
| 2026-04-28 23:43 | 51.11348 | -114.01800 | 3556 ft | 20 kts | 182° |
| 2026-04-28 23:43 | 51.11201 | -114.01799 | 3558 ft | 22 kts | 180° |
| 2026-04-28 23:43 | 51.11041 | -114.01799 | 3558 ft | 24 kts | 179° |
| 2026-04-28 23:43 | 51.10868 | -114.01798 | 3558 ft | 26 kts | 180° |
| 2026-04-28 23:44 | 51.10684 | -114.01799 | 3558 ft | 27 kts | 180° |
| 2026-04-28 23:44 | 51.10490 | -114.01799 | 3558 ft | 28 kts | 180° |
| 2026-04-28 23:44 | 51.10298 | -114.01798 | 3558 ft | 27 kts | 180° |
| 2026-04-28 23:44 | 51.10118 | -114.01799 | 3558 ft | 25 kts | 180° |
| 2026-04-28 23:45 | 51.09950 | -114.01799 | 3558 ft | 24 kts | 179° |
| 2026-04-28 23:45 | 51.09780 | -114.01801 | 3556 ft | 23 kts | 180° |
| 2026-04-28 23:45 | 51.09693 | -114.01900 | 3558 ft | 17 kts | 265° |
| 2026-04-28 23:45 | 51.09696 | -114.02088 | 3560 ft | 17 kts | 289° |
| 2026-04-28 23:46 | 51.09800 | -114.02137 | 3560 ft | 18 kts | 0° |
| 2026-04-28 23:46 | 51.10130 | -114.02138 | 3557 ft | 84 kts | 360° |
| 2026-04-28 23:46 | 51.10935 | -114.02136 | 3559 ft | 144 kts | 360° |
| 2026-04-28 23:46 | 51.12078 | -114.02146 | 3810 ft | 176 kts | 358° |
| 2026-04-28 23:47 | 51.13319 | -114.02251 | 4645 ft | 182 kts | 358° |
| 2026-04-28 23:47 | 51.14601 | -114.02326 | 5448 ft | 187 kts | 358° |
| 2026-04-28 23:47 | 51.15978 | -114.02405 | 5909 ft | 211 kts | 359° |
| 2026-04-28 23:47 | 51.17545 | -114.02459 | 6276 ft | 237 kts | 358° |
| 2026-04-28 23:48 | 51.19259 | -114.02350 | 6750 ft | 260 kts | 11° |
| 2026-04-28 23:48 | 51.21049 | -114.01557 | 7526 ft | 270 kts | 15° |
| 2026-04-28 23:48 | 51.22837 | -114.00684 | 8493 ft | 274 kts | 14° |
| 2026-04-28 23:48 | 51.24708 | -113.99767 | 9391 ft | 282 kts | 14° |
| 2026-04-28 23:49 | 51.26591 | -113.98851 | 10347 ft | 285 kts | 14° |
| 2026-04-28 23:49 | 51.28563 | -113.97903 | 10759 ft | 309 kts | 14° |
| 2026-04-28 23:49 | 51.30704 | -113.96885 | 11130 ft | 330 kts | 14° |
| 2026-04-28 23:49 | 51.32925 | -113.95832 | 12011 ft | 335 kts | 13° |
| 2026-04-28 23:50 | 51.35156 | -113.94775 | 13022 ft | 334 kts | 13° |
| 2026-04-28 23:50 | 51.36633 | -113.94076 | 13700 ft | 335 kts | 13° |
| 2026-04-28 23:50 | 51.38882 | -113.93016 | 14583 ft | 339 kts | 13° |
| 2026-04-28 23:50 | 51.41159 | -113.91945 | 15382 ft | 344 kts | 13° |
| 2026-04-28 23:51 | 51.43478 | -113.90855 | 16219 ft | 349 kts | 13° |
| 2026-04-28 23:51 | 51.45817 | -113.89756 | 17080 ft | 353 kts | 13° |
| 2026-04-28 23:51 | 51.48193 | -113.88638 | 17920 ft | 358 kts | 14° |
| 2026-04-28 23:51 | 51.50601 | -113.87504 | 18709 ft | 363 kts | 14° |
| 2026-04-28 23:52 | 51.53035 | -113.86357 | 19457 ft | 366 kts | 14° |
| 2026-04-28 23:52 | 51.55486 | -113.85201 | 20246 ft | 368 kts | 14° |
| 2026-04-28 23:52 | 51.57954 | -113.84035 | 21000 ft | 372 kts | 14° |
| 2026-04-28 23:52 | 51.60447 | -113.82857 | 21723 ft | 376 kts | 13° |
| 2026-04-28 23:53 | 51.62969 | -113.81664 | 22448 ft | 380 kts | 13° |
| 2026-04-28 23:53 | 51.65521 | -113.80455 | 23106 ft | 385 kts | 13° |
| 2026-04-28 23:53 | 51.68105 | -113.79230 | 23784 ft | 389 kts | 13° |
| 2026-04-28 23:53 | 51.70711 | -113.77993 | 24367 ft | 391 kts | 13° |
| 2026-04-28 23:54 | 51.73331 | -113.76747 | 24970 ft | 393 kts | 13° |
| 2026-04-28 23:54 | 51.75960 | -113.75495 | 25558 ft | 396 kts | 13° |
| 2026-04-28 23:54 | 51.78610 | -113.74232 | 26119 ft | 398 kts | 13° |
| 2026-04-28 23:54 | 51.81279 | -113.72958 | 26662 ft | 401 kts | 13° |
| 2026-04-28 23:55 | 51.83964 | -113.71676 | 27220 ft | 403 kts | 13° |
| 2026-04-28 23:55 | 51.86629 | -113.70402 | 27738 ft | 406 kts | 13° |
| 2026-04-28 23:55 | 51.89348 | -113.69100 | 28232 ft | 409 kts | 13° |
| 2026-04-28 23:55 | 51.92084 | -113.67788 | 28718 ft | 412 kts | 13° |
| 2026-04-28 23:56 | 51.94842 | -113.66464 | 29183 ft | 415 kts | 13° |
| 2026-04-28 23:56 | 51.97618 | -113.65130 | 29653 ft | 418 kts | 13° |
| 2026-04-28 23:56 | 52.00410 | -113.63785 | 30142 ft | 420 kts | 13° |
| 2026-04-28 23:56 | 52.03222 | -113.62424 | 30475 ft | 423 kts | 13° |
| 2026-04-28 23:57 | 52.06042 | -113.61062 | 30936 ft | 422 kts | 13° |
| 2026-04-28 23:57 | 52.08846 | -113.59707 | 31498 ft | 419 kts | 13° |
| 2026-04-28 23:57 | 52.11629 | -113.58359 | 32030 ft | 417 kts | 13° |
| 2026-04-28 23:57 | 52.14410 | -113.57012 | 32465 ft | 417 kts | 13° |
| 2026-04-28 23:58 | 52.17192 | -113.55663 | 32886 ft | 417 kts | 13° |
| 2026-04-28 23:58 | 52.19968 | -113.54314 | 33344 ft | 416 kts | 13° |
| 2026-04-28 23:58 | 52.22736 | -113.52968 | 33812 ft | 415 kts | 13° |
| 2026-04-28 23:58 | 52.25498 | -113.51622 | 34233 ft | 414 kts | 13° |
| 2026-04-28 23:59 | 52.28257 | -113.50277 | 34547 ft | 415 kts | 13° |
| 2026-04-28 23:59 | 52.31027 | -113.48924 | 34821 ft | 416 kts | 13° |
| 2026-04-28 23:59 | 52.33799 | -113.47569 | 35113 ft | 417 kts | 13° |
| 2026-04-28 23:59 | 52.36577 | -113.46210 | 35426 ft | 417 kts | 13° |
| 2026-04-29 00:00 | 52.39360 | -113.44845 | 35727 ft | 418 kts | 13° |
| 2026-04-29 00:00 | 52.42144 | -113.43479 | 35995 ft | 419 kts | 13° |
| 2026-04-29 00:00 | 52.44941 | -113.42104 | 36186 ft | 421 kts | 13° |
| 2026-04-29 00:00 | 52.47763 | -113.40716 | 36170 ft | 425 kts | 14° |
| 2026-04-29 00:01 | 52.53417 | -113.37927 | 36177 ft | 421 kts | 14° |
| 2026-04-29 00:01 | 52.58982 | -113.35170 | 36174 ft | 417 kts | 14° |
| 2026-04-29 00:02 | 52.64536 | -113.32418 | 36187 ft | 417 kts | 14° |
| 2026-04-29 00:02 | 52.70098 | -113.29660 | 36186 ft | 418 kts | 14° |
| 2026-04-29 00:03 | 52.75666 | -113.26894 | 36185 ft | 418 kts | 14° |
| 2026-04-29 00:03 | 52.81242 | -113.24112 | 36192 ft | 419 kts | 14° |
| 2026-04-29 00:04 | 52.86827 | -113.21314 | 36191 ft | 420 kts | 14° |
| 2026-04-29 00:04 | 52.92419 | -113.18505 | 36188 ft | 420 kts | 14° |
| 2026-04-29 00:05 | 52.98012 | -113.15686 | 36192 ft | 420 kts | 14° |
| 2026-04-29 00:05 | 53.03609 | -113.12859 | 36189 ft | 420 kts | 14° |
| 2026-04-29 00:06 | 53.09167 | -113.10043 | 36191 ft | 420 kts | 14° |
| 2026-04-29 00:06 | 53.14760 | -113.07202 | 36190 ft | 420 kts | 14° |
| 2026-04-29 00:07 | 53.20353 | -113.04352 | 36201 ft | 421 kts | 14° |
| 2026-04-29 00:07 | 53.25952 | -113.01494 | 36195 ft | 421 kts | 14° |
| 2026-04-29 00:08 | 53.31551 | -112.98627 | 36193 ft | 421 kts | 14° |
| 2026-04-29 00:08 | 53.37149 | -112.95752 | 36189 ft | 421 kts | 14° |
| 2026-04-29 00:09 | 53.42742 | -112.92872 | 36189 ft | 421 kts | 14° |
| 2026-04-29 00:09 | 53.48334 | -112.89984 | 36182 ft | 420 kts | 14° |
| 2026-04-29 00:10 | 53.53928 | -112.87088 | 36186 ft | 420 kts | 14° |
| 2026-04-29 00:10 | 53.59516 | -112.84185 | 36193 ft | 420 kts | 15° |
| 2026-04-29 00:11 | 53.65102 | -112.81277 | 36186 ft | 420 kts | 15° |
| 2026-04-29 00:12 | 53.73484 | -112.76898 | 36186 ft | 420 kts | 15° |
| 2026-04-29 00:12 | 53.79074 | -112.73967 | 36185 ft | 420 kts | 15° |
| 2026-04-29 00:13 | 53.84661 | -112.71030 | 36181 ft | 420 kts | 15° |
| 2026-04-29 00:13 | 53.90243 | -112.68087 | 36178 ft | 420 kts | 15° |
| 2026-04-29 00:14 | 53.95827 | -112.65135 | 36179 ft | 420 kts | 15° |
| 2026-04-29 00:14 | 54.01411 | -112.62173 | 36183 ft | 421 kts | 15° |
| 2026-04-29 00:15 | 54.07002 | -112.59201 | 36172 ft | 421 kts | 15° |
| 2026-04-29 00:15 | 54.12593 | -112.56220 | 36172 ft | 421 kts | 15° |
| 2026-04-29 00:16 | 54.18181 | -112.53232 | 36168 ft | 421 kts | 15° |
| 2026-04-29 00:16 | 54.23771 | -112.50234 | 36172 ft | 421 kts | 15° |
| 2026-04-29 00:17 | 54.29357 | -112.47230 | 36179 ft | 421 kts | 15° |
| 2026-04-29 00:17 | 54.34910 | -112.44236 | 36176 ft | 421 kts | 15° |
| 2026-04-29 00:18 | 54.40497 | -112.41214 | 36181 ft | 421 kts | 15° |
| 2026-04-29 00:18 | 54.46088 | -112.38182 | 36177 ft | 421 kts | 15° |
| 2026-04-29 00:19 | 54.51678 | -112.35141 | 36175 ft | 421 kts | 15° |
| 2026-04-29 00:19 | 54.57305 | -112.32071 | 36177 ft | 421 kts | 15° |
| 2026-04-29 00:20 | 54.62854 | -112.29036 | 36178 ft | 421 kts | 15° |
| 2026-04-29 00:20 | 54.68438 | -112.25972 | 36177 ft | 421 kts | 15° |
| 2026-04-29 00:21 | 54.74022 | -112.22899 | 36179 ft | 421 kts | 15° |
| 2026-04-29 00:21 | 54.79598 | -112.19822 | 36190 ft | 421 kts | 15° |
| 2026-04-29 00:22 | 54.85174 | -112.16736 | 36183 ft | 421 kts | 15° |
| 2026-04-29 00:22 | 54.90754 | -112.13639 | 36180 ft | 421 kts | 15° |
| 2026-04-29 00:23 | 54.96324 | -112.10538 | 36168 ft | 420 kts | 15° |
| 2026-04-29 00:23 | 55.01893 | -112.07429 | 36168 ft | 420 kts | 15° |
| 2026-04-29 00:24 | 55.07458 | -112.04313 | 36164 ft | 420 kts | 15° |
| 2026-04-29 00:24 | 55.13020 | -112.01189 | 36167 ft | 420 kts | 15° |
| 2026-04-29 00:25 | 55.18582 | -111.98057 | 36161 ft | 420 kts | 15° |
| 2026-04-29 00:25 | 55.24141 | -111.94917 | 36161 ft | 420 kts | 15° |
| 2026-04-29 00:26 | 55.29700 | -111.91767 | 36156 ft | 420 kts | 15° |
| 2026-04-29 00:26 | 55.35255 | -111.88611 | 36158 ft | 420 kts | 15° |
| 2026-04-29 00:27 | 55.40812 | -111.85444 | 36155 ft | 420 kts | 15° |
| 2026-04-29 00:27 | 55.46367 | -111.82269 | 36154 ft | 420 kts | 15° |
| 2026-04-29 00:27 | 55.49144 | -111.80678 | 36020 ft | 422 kts | 16° |
| 2026-04-29 00:28 | 55.51951 | -111.79069 | 35441 ft | 424 kts | 16° |
| 2026-04-29 00:28 | 55.54756 | -111.77458 | 34788 ft | 424 kts | 16° |
| 2026-04-29 00:28 | 55.57554 | -111.75847 | 34274 ft | 420 kts | 16° |
| 2026-04-29 00:28 | 55.60315 | -111.74254 | 33720 ft | 416 kts | 16° |
| 2026-04-29 00:29 | 55.63048 | -111.72676 | 33210 ft | 411 kts | 16° |
| 2026-04-29 00:29 | 55.65754 | -111.71111 | 32694 ft | 406 kts | 16° |
| 2026-04-29 00:29 | 55.68422 | -111.69566 | 32212 ft | 401 kts | 16° |
| 2026-04-29 00:29 | 55.71061 | -111.68035 | 31727 ft | 397 kts | 16° |
| 2026-04-29 00:30 | 55.73673 | -111.66519 | 31261 ft | 393 kts | 16° |
| 2026-04-29 00:30 | 55.75388 | -111.65522 | 30955 ft | 390 kts | 16° |
| 2026-04-29 00:30 | 55.78823 | -111.63523 | 30354 ft | 386 kts | 16° |
| 2026-04-29 00:30 | 55.81360 | -111.62045 | 29839 ft | 382 kts | 16° |
| 2026-04-29 00:31 | 55.83871 | -111.60579 | 29354 ft | 377 kts | 16° |
| 2026-04-29 00:31 | 55.86316 | -111.59150 | 28886 ft | 372 kts | 16° |
| 2026-04-29 00:31 | 55.88762 | -111.57717 | 28407 ft | 368 kts | 16° |
| 2026-04-29 00:31 | 55.91181 | -111.56300 | 27940 ft | 364 kts | 16° |
| 2026-04-29 00:32 | 55.93571 | -111.54897 | 27470 ft | 360 kts | 16° |
| 2026-04-29 00:32 | 55.95940 | -111.53505 | 27011 ft | 357 kts | 16° |
| 2026-04-29 00:32 | 55.98319 | -111.52106 | 26538 ft | 354 kts | 15° |
| 2026-04-29 00:32 | 56.00614 | -111.50754 | 26094 ft | 351 kts | 15° |
| 2026-04-29 00:33 | 56.02923 | -111.49392 | 25641 ft | 348 kts | 15° |
| 2026-04-29 00:33 | 56.04473 | -111.48477 | 25358 ft | 346 kts | 15° |
| 2026-04-29 00:33 | 56.07487 | -111.46696 | 24738 ft | 344 kts | 15° |
| 2026-04-29 00:33 | 56.09772 | -111.45345 | 24046 ft | 349 kts | 15° |
| 2026-04-29 00:34 | 56.11336 | -111.44419 | 23646 ft | 350 kts | 16° |
| 2026-04-29 00:34 | 56.13640 | -111.43052 | 23134 ft | 347 kts | 16° |
| 2026-04-29 00:34 | 56.15913 | -111.41701 | 22761 ft | 341 kts | 16° |
| 2026-04-29 00:34 | 56.18143 | -111.40372 | 22481 ft | 336 kts | 16° |
| 2026-04-29 00:35 | 56.20355 | -111.39054 | 22082 ft | 332 kts | 16° |
| 2026-04-29 00:35 | 56.22531 | -111.37756 | 21661 ft | 328 kts | 16° |
| 2026-04-29 00:35 | 56.24690 | -111.36467 | 21211 ft | 326 kts | 16° |
| 2026-04-29 00:35 | 56.26834 | -111.35186 | 20763 ft | 323 kts | 16° |
| 2026-04-29 00:36 | 56.28934 | -111.33930 | 20337 ft | 321 kts | 16° |
| 2026-04-29 00:36 | 56.31074 | -111.32648 | 19906 ft | 319 kts | 16° |
| 2026-04-29 00:36 | 56.33147 | -111.31404 | 19477 ft | 317 kts | 16° |
| 2026-04-29 00:36 | 56.35231 | -111.30153 | 19039 ft | 315 kts | 16° |
| 2026-04-29 00:37 | 56.37307 | -111.28905 | 18610 ft | 313 kts | 15° |
| 2026-04-29 00:37 | 56.39378 | -111.27659 | 18064 ft | 314 kts | 15° |
| 2026-04-29 00:37 | 56.41448 | -111.26412 | 17576 ft | 312 kts | 15° |
| 2026-04-29 00:37 | 56.43500 | -111.25174 | 17130 ft | 310 kts | 15° |
| 2026-04-29 00:38 | 56.45533 | -111.23945 | 16685 ft | 307 kts | 15° |
| 2026-04-29 00:38 | 56.47547 | -111.22727 | 16279 ft | 304 kts | 16° |
| 2026-04-29 00:38 | 56.49544 | -111.21517 | 15839 ft | 302 kts | 16° |
| 2026-04-29 00:38 | 56.51531 | -111.20313 | 15399 ft | 300 kts | 16° |
| 2026-04-29 00:39 | 56.53504 | -111.19116 | 14969 ft | 298 kts | 16° |
| 2026-04-29 00:39 | 56.55463 | -111.17924 | 14548 ft | 296 kts | 16° |
| 2026-04-29 00:39 | 56.57408 | -111.16741 | 14133 ft | 294 kts | 16° |
| 2026-04-29 00:39 | 56.59345 | -111.15562 | 13704 ft | 292 kts | 16° |
| 2026-04-29 00:40 | 56.61265 | -111.14392 | 13237 ft | 290 kts | 16° |
| 2026-04-29 00:40 | 56.63172 | -111.13230 | 12825 ft | 287 kts | 16° |
| 2026-04-29 00:40 | 56.65062 | -111.12116 | 12396 ft | 284 kts | 13° |
| 2026-04-29 00:40 | 56.66990 | -111.11268 | 11991 ft | 284 kts | 10° |
| 2026-04-29 00:41 | 56.68926 | -111.10521 | 11444 ft | 286 kts | 9° |
| 2026-04-29 00:41 | 56.70879 | -111.09783 | 10994 ft | 284 kts | 10° |
| 2026-04-29 00:41 | 56.72810 | -111.09046 | 10579 ft | 283 kts | 10° |
| 2026-04-29 00:41 | 56.74725 | -111.08305 | 10252 ft | 278 kts | 10° |
| 2026-04-29 00:42 | 56.76570 | -111.07581 | 10136 ft | 266 kts | 10° |
| 2026-04-29 00:42 | 56.78342 | -111.06881 | 9983 ft | 256 kts | 10° |
| 2026-04-29 00:42 | 56.80077 | -111.06194 | 9635 ft | 254 kts | 10° |
| 2026-04-29 00:42 | 56.81793 | -111.05512 | 9294 ft | 252 kts | 10° |
| 2026-04-29 00:43 | 56.83496 | -111.04833 | 8969 ft | 249 kts | 10° |
| 2026-04-29 00:43 | 56.85184 | -111.04159 | 8631 ft | 248 kts | 10° |
| 2026-04-29 00:43 | 56.86841 | -111.03496 | 8302 ft | 246 kts | 9° |
| 2026-04-29 00:43 | 56.88508 | -111.02828 | 7984 ft | 245 kts | 9° |
| 2026-04-29 00:44 | 56.90164 | -111.02163 | 7662 ft | 243 kts | 9° |
| 2026-04-29 00:44 | 56.91815 | -111.01500 | 7345 ft | 242 kts | 9° |
| 2026-04-29 00:44 | 56.93458 | -111.00839 | 7027 ft | 241 kts | 9° |
| 2026-04-29 00:44 | 56.95091 | -111.00178 | 6720 ft | 241 kts | 10° |
| 2026-04-29 00:45 | 56.96727 | -110.99522 | 6399 ft | 240 kts | 10° |
| 2026-04-29 00:45 | 56.98356 | -110.98868 | 6063 ft | 239 kts | 11° |
| 2026-04-29 00:45 | 56.99966 | -110.98219 | 5875 ft | 233 kts | 10° |
| 2026-04-29 00:45 | 57.01522 | -110.97648 | 5744 ft | 223 kts | 4° |
| 2026-04-29 00:46 | 57.03037 | -110.97562 | 5640 ft | 213 kts | 358° |
| 2026-04-29 00:46 | 57.04471 | -110.97593 | 5575 ft | 199 kts | 357° |
| 2026-04-29 00:46 | 57.05805 | -110.97661 | 5478 ft | 186 kts | 357° |
| 2026-04-29 00:46 | 57.07089 | -110.97681 | 5436 ft | 183 kts | 358° |
| 2026-04-29 00:47 | 57.08375 | -110.97681 | 5234 ft | 187 kts | 359° |
| 2026-04-29 00:47 | 57.09674 | -110.97680 | 5020 ft | 186 kts | 359° |
| 2026-04-29 00:47 | 57.10949 | -110.97679 | 4782 ft | 182 kts | 359° |
| 2026-04-29 00:47 | 57.12212 | -110.97681 | 4563 ft | 179 kts | 359° |
| 2026-04-29 00:48 | 57.13450 | -110.97678 | 4402 ft | 176 kts | 359° |
| 2026-04-29 00:48 | 57.14674 | -110.97680 | 4190 ft | 180 kts | 359° |
| 2026-04-29 00:48 | 57.15935 | -110.97680 | 3943 ft | 179 kts | 359° |
| 2026-04-29 00:48 | 57.17125 | -110.97680 | 3702 ft | 163 kts | 359° |
| 2026-04-29 00:49 | 57.18191 | -110.97679 | 3532 ft | 144 kts | 359° |
| 2026-04-29 00:49 | 57.19128 | -110.97678 | 3349 ft | 125 kts | 359° |
| 2026-04-29 00:49 | 57.20030 | -110.97679 | 3182 ft | 133 kts | 359° |
| 2026-04-29 00:49 | 57.20943 | -110.97679 | 2996 ft | 128 kts | 359° |
| 2026-04-29 00:50 | 57.21827 | -110.97679 | 2832 ft | 127 kts | 359° |
| 2026-04-29 00:50 | 57.22724 | -110.97691 | 2657 ft | 130 kts | 359° |
| 2026-04-29 00:50 | 57.23643 | -110.97687 | 2483 ft | 131 kts | 360° |
| 2026-04-29 00:50 | 57.24559 | -110.97673 | 2341 ft | 131 kts | 1° |
| 2026-04-29 00:51 | 57.25478 | -110.97679 | 2086 ft | 136 kts | 360° |
| 2026-04-29 00:51 | 57.26419 | -110.97675 | 1851 ft | 133 kts | 1° |
| 2026-04-29 00:51 | 57.27301 | -110.97670 | 1744 ft | 107 kts | 0° |
| 2026-04-29 00:51 | 57.27728 | -110.97672 | 1733 ft | 29 kts | 360° |
| 2026-04-29 00:52 | 57.27880 | -110.97704 | 1727 ft | 12 kts | 325° |
| 2026-04-29 00:52 | 57.27888 | -110.97852 | 1727 ft | 12 kts | 269° |
| 2026-04-29 00:52 | 57.27893 | -110.97979 | 1725 ft | 7 kts | 305° |
| 2026-04-29 00:52 | 57.27953 | -110.97988 | 1720 ft | 12 kts | 0° |
| 2026-04-29 00:53 | 57.28029 | -110.97995 | 1715 ft | 10 kts | 337° |
| 2026-04-29 00:53 | 57.28061 | -110.98064 | 1713 ft | 4 kts | 299° |
| 2026-04-29 00:53 | 57.28065 | -110.98078 | 1712 ft | 0 kts | 299° |